sensor_id;sensor_type;location;lat;lon;timestamp;P1;durP1;ratioP1;P2;durP2;ratioP2
18574;SDS011;9417;16.484;102.872;2022-07-29T00:01:49;16.48;;;13.50;;
18574;SDS011;9417;16.484;102.872;2022-07-29T00:03:57;18.75;;;13.45;;
18574;SDS011;9417;16.484;102.872;2022-07-29T00:06:04;15.85;;;12.88;;
18574;SDS011;9417;16.484;102.872;2022-07-29T00:08:14;15.55;;;12.10;;
18574;SDS011;9417;16.484;102.872;2022-07-29T00:10:21;15.43;;;13.13;;
18574;SDS011;9417;16.484;102.872;2022-07-29T00:12:28;14.00;;;11.68;;
18574;SDS011;9417;16.484;102.872;2022-07-29T00:14:35;17.42;;;12.75;;
18574;SDS011;9417;16.484;102.872;2022-07-29T00:16:45;13.40;;;11.90;;
18574;SDS011;9417;16.484;102.872;2022-07-29T00:18:53;16.75;;;12.65;;
18574;SDS011;9417;16.484;102.872;2022-07-29T00:21:04;16.27;;;12.10;;
18574;SDS011;9417;16.484;102.872;2022-07-29T00:23:13;18.52;;;12.32;;
18574;SDS011;9417;16.484;102.872;2022-07-29T00:25:20;14.65;;;12.27;;
18574;SDS011;9417;16.484;102.872;2022-07-29T00:27:27;17.63;;;13.07;;
18574;SDS011;9417;16.484;102.872;2022-07-29T00:29:35;15.45;;;12.10;;
18574;SDS011;9417;16.484;102.872;2022-07-29T00:31:42;18.38;;;13.55;;
18574;SDS011;9417;16.484;102.872;2022-07-29T00:33:49;15.07;;;12.20;;
18574;SDS011;9417;16.484;102.872;2022-07-29T00:35:56;15.35;;;12.52;;
18574;SDS011;9417;16.484;102.872;2022-07-29T00:38:02;17.38;;;13.95;;
18574;SDS011;9417;16.484;102.872;2022-07-29T00:40:11;19.13;;;15.88;;
18574;SDS011;9417;16.484;102.872;2022-07-29T00:42:19;17.25;;;15.05;;
18574;SDS011;9417;16.484;102.872;2022-07-29T00:44:26;19.05;;;14.98;;
18574;SDS011;9417;16.484;102.872;2022-07-29T00:46:33;18.63;;;14.13;;
18574;SDS011;9417;16.484;102.872;2022-07-29T00:48:41;18.75;;;14.13;;
18574;SDS011;9417;16.484;102.872;2022-07-29T00:50:48;15.35;;;13.75;;
18574;SDS011;9417;16.484;102.872;2022-07-29T00:52:56;15.23;;;12.98;;
18574;SDS011;9417;16.484;102.872;2022-07-29T00:55:04;15.57;;;12.57;;
18574;SDS011;9417;16.484;102.872;2022-07-29T00:57:14;16.75;;;12.75;;
18574;SDS011;9417;16.484;102.872;2022-07-29T00:59:22;13.30;;;11.82;;
18574;SDS011;9417;16.484;102.872;2022-07-29T01:01:37;13.70;;;12.00;;
18574;SDS011;9417;16.484;102.872;2022-07-29T01:03:44;14.65;;;10.35;;
18574;SDS011;9417;16.484;102.872;2022-07-29T01:05:51;13.15;;;10.57;;
18574;SDS011;9417;16.484;102.872;2022-07-29T01:08:00;12.38;;;10.50;;
18574;SDS011;9417;16.484;102.872;2022-07-29T01:10:08;12.32;;;10.40;;
18574;SDS011;9417;16.484;102.872;2022-07-29T01:12:21;13.40;;;10.35;;
18574;SDS011;9417;16.484;102.872;2022-07-29T01:14:30;13.75;;;10.43;;
18574;SDS011;9417;16.484;102.872;2022-07-29T01:16:39;11.90;;;10.25;;
18574;SDS011;9417;16.484;102.872;2022-07-29T01:18:53;15.27;;;11.98;;
18574;SDS011;9417;16.484;102.872;2022-07-29T01:21:11;15.40;;;11.27;;
18574;SDS011;9417;16.484;102.872;2022-07-29T01:23:42;13.10;;;11.40;;
18574;SDS011;9417;16.484;102.872;2022-07-29T01:26:06;14.65;;;12.00;;
18574;SDS011;9417;16.484;102.872;2022-07-29T01:31:12;15.93;;;13.38;;
18574;SDS011;9417;16.484;102.872;2022-07-29T01:33:28;14.93;;;13.20;;
18574;SDS011;9417;16.484;102.872;2022-07-29T01:35:55;15.55;;;12.73;;
18574;SDS011;9417;16.484;102.872;2022-07-29T01:38:05;12.93;;;11.63;;
18574;SDS011;9417;16.484;102.872;2022-07-29T01:40:19;13.55;;;12.10;;
18574;SDS011;9417;16.484;102.872;2022-07-29T01:42:30;13.07;;;11.65;;
18574;SDS011;9417;16.484;102.872;2022-07-29T01:44:47;15.02;;;12.20;;
18574;SDS011;9417;16.484;102.872;2022-07-29T01:47:01;12.93;;;11.52;;
18574;SDS011;9417;16.484;102.872;2022-07-29T01:49:14;13.73;;;10.90;;
18574;SDS011;9417;16.484;102.872;2022-07-29T01:51:25;13.40;;;12.00;;
18574;SDS011;9417;16.484;102.872;2022-07-29T01:53:39;14.05;;;10.95;;
18574;SDS011;9417;16.484;102.872;2022-07-29T01:55:51;12.20;;;10.90;;
18574;SDS011;9417;16.484;102.872;2022-07-29T01:58:00;11.85;;;10.65;;
18574;SDS011;9417;16.484;102.872;2022-07-29T02:00:13;12.18;;;10.63;;
18574;SDS011;9417;16.484;102.872;2022-07-29T02:02:21;12.55;;;10.15;;
18574;SDS011;9417;16.484;102.872;2022-07-29T02:04:30;11.65;;;10.43;;
18574;SDS011;9417;16.484;102.872;2022-07-29T02:06:40;12.23;;;11.00;;
18574;SDS011;9417;16.484;102.872;2022-07-29T02:08:50;11.73;;;10.23;;
18574;SDS011;9417;16.484;102.872;2022-07-29T02:10:59;13.40;;;10.93;;
18574;SDS011;9417;16.484;102.872;2022-07-29T02:13:09;12.77;;;11.15;;
18574;SDS011;9417;16.484;102.872;2022-07-29T02:15:20;12.13;;;10.93;;
18574;SDS011;9417;16.484;102.872;2022-07-29T02:17:31;12.17;;;10.70;;
18574;SDS011;9417;16.484;102.872;2022-07-29T02:19:42;11.98;;;10.77;;
18574;SDS011;9417;16.484;102.872;2022-07-29T02:21:51;15.48;;;11.85;;
18574;SDS011;9417;16.484;102.872;2022-07-29T02:24:00;12.27;;;10.65;;
18574;SDS011;9417;16.484;102.872;2022-07-29T02:26:10;11.25;;;9.88;;
18574;SDS011;9417;16.484;102.872;2022-07-29T02:28:18;10.98;;;9.88;;
18574;SDS011;9417;16.484;102.872;2022-07-29T02:30:29;11.10;;;10.00;;
18574;SDS011;9417;16.484;102.872;2022-07-29T02:32:37;11.60;;;9.32;;
18574;SDS011;9417;16.484;102.872;2022-07-29T02:34:48;11.05;;;9.95;;
18574;SDS011;9417;16.484;102.872;2022-07-29T02:36:57;10.93;;;9.85;;
18574;SDS011;9417;16.484;102.872;2022-07-29T02:39:05;10.75;;;9.35;;
18574;SDS011;9417;16.484;102.872;2022-07-29T02:41:15;9.85;;;8.85;;
18574;SDS011;9417;16.484;102.872;2022-07-29T02:43:25;10.27;;;9.17;;
18574;SDS011;9417;16.484;102.872;2022-07-29T02:45:35;10.30;;;8.73;;
18574;SDS011;9417;16.484;102.872;2022-07-29T02:47:43;11.63;;;9.15;;
18574;SDS011;9417;16.484;102.872;2022-07-29T02:49:55;10.20;;;9.20;;
18574;SDS011;9417;16.484;102.872;2022-07-29T02:52:06;11.65;;;9.35;;
18574;SDS011;9417;16.484;102.872;2022-07-29T02:54:21;10.52;;;9.32;;
18574;SDS011;9417;16.484;102.872;2022-07-29T02:56:32;10.38;;;9.38;;
18574;SDS011;9417;16.484;102.872;2022-07-29T02:58:41;10.52;;;9.38;;
18574;SDS011;9417;16.484;102.872;2022-07-29T03:00:54;11.57;;;9.18;;
18574;SDS011;9417;16.484;102.872;2022-07-29T03:03:03;9.93;;;8.93;;
18574;SDS011;9417;16.484;102.872;2022-07-29T03:05:16;10.52;;;9.50;;
18574;SDS011;9417;16.484;102.872;2022-07-29T03:07:25;12.00;;;9.57;;
18574;SDS011;9417;16.484;102.872;2022-07-29T03:09:32;10.93;;;9.82;;
18574;SDS011;9417;16.484;102.872;2022-07-29T03:11:40;10.13;;;9.13;;
18574;SDS011;9417;16.484;102.872;2022-07-29T03:13:52;11.60;;;9.88;;
18574;SDS011;9417;16.484;102.872;2022-07-29T03:16:02;11.45;;;10.25;;
18574;SDS011;9417;16.484;102.872;2022-07-29T03:18:10;11.02;;;9.93;;
18574;SDS011;9417;16.484;102.872;2022-07-29T03:20:18;10.30;;;9.20;;
18574;SDS011;9417;16.484;102.872;2022-07-29T03:22:26;10.77;;;9.75;;
18574;SDS011;9417;16.484;102.872;2022-07-29T03:24:34;10.27;;;9.27;;
18574;SDS011;9417;16.484;102.872;2022-07-29T03:26:42;11.57;;;9.95;;
18574;SDS011;9417;16.484;102.872;2022-07-29T03:28:49;11.10;;;10.00;;
18574;SDS011;9417;16.484;102.872;2022-07-29T03:30:56;11.63;;;10.23;;
18574;SDS011;9417;16.484;102.872;2022-07-29T03:33:07;10.45;;;9.35;;
18574;SDS011;9417;16.484;102.872;2022-07-29T03:35:15;11.38;;;9.38;;
18574;SDS011;9417;16.484;102.872;2022-07-29T03:37:23;10.00;;;9.07;;
18574;SDS011;9417;16.484;102.872;2022-07-29T03:39:31;11.65;;;9.63;;
18574;SDS011;9417;16.484;102.872;2022-07-29T03:41:40;10.43;;;8.63;;
18574;SDS011;9417;16.484;102.872;2022-07-29T03:43:50;10.18;;;9.10;;
18574;SDS011;9417;16.484;102.872;2022-07-29T03:45:59;10.23;;;9.23;;
18574;SDS011;9417;16.484;102.872;2022-07-29T03:48:12;9.85;;;8.88;;
18574;SDS011;9417;16.484;102.872;2022-07-29T03:52:29;9.55;;;8.65;;
18574;SDS011;9417;16.484;102.872;2022-07-29T03:54:36;9.55;;;8.57;;
18574;SDS011;9417;16.484;102.872;2022-07-29T03:56:45;13.05;;;9.07;;
18574;SDS011;9417;16.484;102.872;2022-07-29T03:58:54;10.25;;;9.30;;
18574;SDS011;9417;16.484;102.872;2022-07-29T04:01:01;10.80;;;9.20;;
18574;SDS011;9417;16.484;102.872;2022-07-29T04:03:09;9.90;;;8.90;;
18574;SDS011;9417;16.484;102.872;2022-07-29T04:05:18;10.68;;;8.68;;
18574;SDS011;9417;16.484;102.872;2022-07-29T04:07:25;10.05;;;9.05;;
18574;SDS011;9417;16.484;102.872;2022-07-29T04:09:33;9.85;;;8.77;;
18574;SDS011;9417;16.484;102.872;2022-07-29T04:11:41;9.65;;;8.45;;
18574;SDS011;9417;16.484;102.872;2022-07-29T04:14:05;9.05;;;8.15;;
18574;SDS011;9417;16.484;102.872;2022-07-29T04:16:13;9.30;;;8.27;;
18574;SDS011;9417;16.484;102.872;2022-07-29T04:18:22;9.13;;;8.23;;
18574;SDS011;9417;16.484;102.872;2022-07-29T04:20:29;9.10;;;8.20;;
18574;SDS011;9417;16.484;102.872;2022-07-29T04:22:36;8.95;;;8.10;;
18574;SDS011;9417;16.484;102.872;2022-07-29T04:24:44;9.57;;;8.35;;
18574;SDS011;9417;16.484;102.872;2022-07-29T04:26:51;10.02;;;9.00;;
18574;SDS011;9417;16.484;102.872;2022-07-29T04:28:58;9.35;;;8.35;;
18574;SDS011;9417;16.484;102.872;2022-07-29T04:31:06;9.20;;;8.30;;
18574;SDS011;9417;16.484;102.872;2022-07-29T04:33:13;9.02;;;8.13;;
18574;SDS011;9417;16.484;102.872;2022-07-29T04:35:22;9.82;;;8.45;;
18574;SDS011;9417;16.484;102.872;2022-07-29T04:37:29;9.90;;;8.95;;
18574;SDS011;9417;16.484;102.872;2022-07-29T04:39:36;9.73;;;8.82;;
18574;SDS011;9417;16.484;102.872;2022-07-29T04:41:44;9.48;;;7.85;;
18574;SDS011;9417;16.484;102.872;2022-07-29T04:43:51;9.02;;;8.00;;
18574;SDS011;9417;16.484;102.872;2022-07-29T04:45:59;9.55;;;8.55;;
18574;SDS011;9417;16.484;102.872;2022-07-29T04:48:09;10.73;;;9.57;;
18574;SDS011;9417;16.484;102.872;2022-07-29T04:50:16;10.80;;;8.60;;
18574;SDS011;9417;16.484;102.872;2022-07-29T04:52:25;9.68;;;8.57;;
18574;SDS011;9417;16.484;102.872;2022-07-29T04:54:33;10.43;;;8.90;;
18574;SDS011;9417;16.484;102.872;2022-07-29T04:56:40;10.18;;;8.85;;
18574;SDS011;9417;16.484;102.872;2022-07-29T04:58:49;10.32;;;9.23;;
18574;SDS011;9417;16.484;102.872;2022-07-29T05:00:56;10.52;;;9.30;;
18574;SDS011;9417;16.484;102.872;2022-07-29T05:03:04;10.25;;;9.25;;
18574;SDS011;9417;16.484;102.872;2022-07-29T05:05:11;10.15;;;9.13;;
18574;SDS011;9417;16.484;102.872;2022-07-29T05:07:18;10.40;;;8.73;;
18574;SDS011;9417;16.484;102.872;2022-07-29T05:09:27;10.02;;;9.05;;
18574;SDS011;9417;16.484;102.872;2022-07-29T05:11:35;9.90;;;8.65;;
18574;SDS011;9417;16.484;102.872;2022-07-29T05:13:43;9.65;;;8.70;;
18574;SDS011;9417;16.484;102.872;2022-07-29T05:15:50;10.95;;;9.18;;
18574;SDS011;9417;16.484;102.872;2022-07-29T05:17:58;10.05;;;9.05;;
18574;SDS011;9417;16.484;102.872;2022-07-29T05:20:05;10.50;;;9.43;;
18574;SDS011;9417;16.484;102.872;2022-07-29T05:22:13;10.35;;;9.43;;
18574;SDS011;9417;16.484;102.872;2022-07-29T05:24:21;11.25;;;9.45;;
18574;SDS011;9417;16.484;102.872;2022-07-29T05:26:30;9.88;;;8.98;;
18574;SDS011;9417;16.484;102.872;2022-07-29T05:28:37;10.50;;;9.50;;
18574;SDS011;9417;16.484;102.872;2022-07-29T05:30:44;11.38;;;8.82;;
18574;SDS011;9417;16.484;102.872;2022-07-29T05:32:52;11.10;;;9.93;;
18574;SDS011;9417;16.484;102.872;2022-07-29T05:34:59;11.00;;;9.88;;
18574;SDS011;9417;16.484;102.872;2022-07-29T05:37:07;11.32;;;9.38;;
18574;SDS011;9417;16.484;102.872;2022-07-29T05:39:14;9.68;;;8.45;;
18574;SDS011;9417;16.484;102.872;2022-07-29T05:41:22;10.27;;;8.75;;
18574;SDS011;9417;16.484;102.872;2022-07-29T05:43:32;9.38;;;8.13;;
18574;SDS011;9417;16.484;102.872;2022-07-29T05:45:39;9.35;;;7.55;;
18574;SDS011;9417;16.484;102.872;2022-07-29T05:47:51;8.32;;;7.47;;
18574;SDS011;9417;16.484;102.872;2022-07-29T05:49:58;9.43;;;7.68;;
18574;SDS011;9417;16.484;102.872;2022-07-29T05:52:05;7.38;;;6.68;;
18574;SDS011;9417;16.484;102.872;2022-07-29T05:54:13;8.18;;;7.40;;
18574;SDS011;9417;16.484;102.872;2022-07-29T05:56:20;7.60;;;6.22;;
18574;SDS011;9417;16.484;102.872;2022-07-29T05:58:27;9.00;;;7.50;;
18574;SDS011;9417;16.484;102.872;2022-07-29T06:00:36;7.93;;;7.13;;
18574;SDS011;9417;16.484;102.872;2022-07-29T06:02:44;10.45;;;7.13;;
18574;SDS011;9417;16.484;102.872;2022-07-29T06:04:51;8.18;;;7.38;;
18574;SDS011;9417;16.484;102.872;2022-07-29T06:06:58;8.20;;;7.40;;
18574;SDS011;9417;16.484;102.872;2022-07-29T06:09:06;10.73;;;7.82;;
18574;SDS011;9417;16.484;102.872;2022-07-29T06:11:14;8.90;;;7.78;;
18574;SDS011;9417;16.484;102.872;2022-07-29T06:13:22;13.20;;;9.68;;
18574;SDS011;9417;16.484;102.872;2022-07-29T06:15:29;8.95;;;8.05;;
18574;SDS011;9417;16.484;102.872;2022-07-29T06:17:38;10.00;;;6.95;;
18574;SDS011;9417;16.484;102.872;2022-07-29T06:20:02;7.57;;;6.78;;
18574;SDS011;9417;16.484;102.872;2022-07-29T06:22:12;8.50;;;6.85;;
18574;SDS011;9417;16.484;102.872;2022-07-29T06:24:21;7.00;;;6.40;;
18574;SDS011;9417;16.484;102.872;2022-07-29T06:26:29;7.05;;;6.35;;
18574;SDS011;9417;16.484;102.872;2022-07-29T06:28:41;8.23;;;7.40;;
18574;SDS011;9417;16.484;102.872;2022-07-29T06:30:48;8.15;;;7.35;;
18574;SDS011;9417;16.484;102.872;2022-07-29T06:32:57;9.02;;;7.25;;
18574;SDS011;9417;16.484;102.872;2022-07-29T06:35:06;7.35;;;6.63;;
18574;SDS011;9417;16.484;102.872;2022-07-29T06:37:33;8.02;;;7.18;;
18574;SDS011;9417;16.484;102.872;2022-07-29T06:39:42;8.68;;;6.78;;
18574;SDS011;9417;16.484;102.872;2022-07-29T06:41:49;11.20;;;6.88;;
18574;SDS011;9417;16.484;102.872;2022-07-29T06:43:59;8.07;;;6.78;;
18574;SDS011;9417;16.484;102.872;2022-07-29T06:46:08;7.63;;;6.72;;
18574;SDS011;9417;16.484;102.872;2022-07-29T06:48:19;9.00;;;6.55;;
18574;SDS011;9417;16.484;102.872;2022-07-29T06:50:26;7.63;;;6.80;;
18574;SDS011;9417;16.484;102.872;2022-07-29T06:52:33;7.93;;;7.07;;
18574;SDS011;9417;16.484;102.872;2022-07-29T06:54:40;7.32;;;6.63;;
18574;SDS011;9417;16.484;102.872;2022-07-29T06:56:51;6.38;;;5.70;;
18574;SDS011;9417;16.484;102.872;2022-07-29T06:58:58;7.35;;;6.65;;
18574;SDS011;9417;16.484;102.872;2022-07-29T07:01:06;6.93;;;6.32;;
18574;SDS011;9417;16.484;102.872;2022-07-29T07:03:15;7.15;;;6.18;;
18574;SDS011;9417;16.484;102.872;2022-07-29T07:05:25;7.20;;;6.40;;
18574;SDS011;9417;16.484;102.872;2022-07-29T07:07:33;8.20;;;5.93;;
18574;SDS011;9417;16.484;102.872;2022-07-29T07:09:40;6.82;;;6.22;;
18574;SDS011;9417;16.484;102.872;2022-07-29T07:11:47;6.00;;;5.40;;
18574;SDS011;9417;16.484;102.872;2022-07-29T07:13:54;6.45;;;5.70;;
18574;SDS011;9417;16.484;102.872;2022-07-29T07:16:05;6.80;;;6.20;;
18574;SDS011;9417;16.484;102.872;2022-07-29T07:18:12;7.43;;;5.45;;
18574;SDS011;9417;16.484;102.872;2022-07-29T07:20:20;7.03;;;5.75;;
18574;SDS011;9417;16.484;102.872;2022-07-29T07:22:29;6.93;;;6.22;;
18574;SDS011;9417;16.484;102.872;2022-07-29T07:24:40;7.18;;;6.22;;
18574;SDS011;9417;16.484;102.872;2022-07-29T07:26:47;8.63;;;7.13;;
18574;SDS011;9417;16.484;102.872;2022-07-29T07:28:54;9.57;;;6.97;;
18574;SDS011;9417;16.484;102.872;2022-07-29T07:31:02;9.00;;;6.88;;
18574;SDS011;9417;16.484;102.872;2022-07-29T07:33:09;7.60;;;6.50;;
18574;SDS011;9417;16.484;102.872;2022-07-29T07:35:17;7.20;;;6.13;;
18574;SDS011;9417;16.484;102.872;2022-07-29T07:37:24;8.23;;;6.10;;
18574;SDS011;9417;16.484;102.872;2022-07-29T07:39:33;6.75;;;6.05;;
18574;SDS011;9417;16.484;102.872;2022-07-29T07:41:40;7.85;;;6.68;;
18574;SDS011;9417;16.484;102.872;2022-07-29T07:43:47;6.72;;;6.07;;
18574;SDS011;9417;16.484;102.872;2022-07-29T07:45:55;9.75;;;6.35;;
18574;SDS011;9417;16.484;102.872;2022-07-29T07:48:03;7.80;;;6.82;;
18574;SDS011;9417;16.484;102.872;2022-07-29T07:50:13;9.73;;;8.52;;
18574;SDS011;9417;16.484;102.872;2022-07-29T07:52:21;11.38;;;8.98;;
18574;SDS011;9417;16.484;102.872;2022-07-29T07:54:28;7.50;;;6.80;;
18574;SDS011;9417;16.484;102.872;2022-07-29T07:56:38;5.45;;;4.95;;
18574;SDS011;9417;16.484;102.872;2022-07-29T07:58:45;6.15;;;4.90;;
18574;SDS011;9417;16.484;102.872;2022-07-29T08:00:53;9.80;;;6.45;;
18574;SDS011;9417;16.484;102.872;2022-07-29T08:03:00;7.57;;;5.47;;
18574;SDS011;9417;16.484;102.872;2022-07-29T08:05:19;5.70;;;4.90;;
18574;SDS011;9417;16.484;102.872;2022-07-29T08:07:26;5.07;;;4.57;;
18574;SDS011;9417;16.484;102.872;2022-07-29T08:09:33;5.32;;;4.68;;
18574;SDS011;9417;16.484;102.872;2022-07-29T08:11:42;5.25;;;4.55;;
18574;SDS011;9417;16.484;102.872;2022-07-29T08:13:53;4.97;;;4.45;;
18574;SDS011;9417;16.484;102.872;2022-07-29T08:16:01;6.22;;;4.72;;
18574;SDS011;9417;16.484;102.872;2022-07-29T08:18:15;4.63;;;4.15;;
18574;SDS011;9417;16.484;102.872;2022-07-29T08:20:22;4.35;;;3.95;;
18574;SDS011;9417;16.484;102.872;2022-07-29T08:22:30;4.18;;;3.78;;
18574;SDS011;9417;16.484;102.872;2022-07-29T08:24:37;5.30;;;4.03;;
18574;SDS011;9417;16.484;102.872;2022-07-29T08:26:59;5.78;;;4.90;;
18574;SDS011;9417;16.484;102.872;2022-07-29T08:29:26;5.05;;;4.50;;
18574;SDS011;9417;16.484;102.872;2022-07-29T08:31:33;6.85;;;5.38;;
18574;SDS011;9417;16.484;102.872;2022-07-29T08:33:41;6.63;;;5.57;;
18574;SDS011;9417;16.484;102.872;2022-07-29T08:35:48;6.45;;;5.65;;
18574;SDS011;9417;16.484;102.872;2022-07-29T08:37:55;6.53;;;5.55;;
18574;SDS011;9417;16.484;102.872;2022-07-29T08:40:04;5.95;;;5.35;;
18574;SDS011;9417;16.484;102.872;2022-07-29T08:42:15;8.63;;;6.78;;
18574;SDS011;9417;16.484;102.872;2022-07-29T08:44:22;6.85;;;6.10;;
18574;SDS011;9417;16.484;102.872;2022-07-29T08:46:32;6.97;;;6.25;;
18574;SDS011;9417;16.484;102.872;2022-07-29T08:48:43;7.10;;;6.38;;
18574;SDS011;9417;16.484;102.872;2022-07-29T08:50:52;7.70;;;6.20;;
18574;SDS011;9417;16.484;102.872;2022-07-29T08:53:01;6.40;;;5.80;;
18574;SDS011;9417;16.484;102.872;2022-07-29T08:55:09;6.60;;;5.90;;
18574;SDS011;9417;16.484;102.872;2022-07-29T08:57:24;7.28;;;5.85;;
18574;SDS011;9417;16.484;102.872;2022-07-29T08:59:34;8.60;;;6.43;;
18574;SDS011;9417;16.484;102.872;2022-07-29T09:01:45;6.97;;;5.95;;
18574;SDS011;9417;16.484;102.872;2022-07-29T09:03:54;7.05;;;6.35;;
18574;SDS011;9417;16.484;102.872;2022-07-29T09:06:04;9.53;;;6.30;;
18574;SDS011;9417;16.484;102.872;2022-07-29T09:08:12;8.45;;;6.55;;
18574;SDS011;9417;16.484;102.872;2022-07-29T09:10:19;6.15;;;5.55;;
18574;SDS011;9417;16.484;102.872;2022-07-29T09:12:29;5.90;;;5.30;;
18574;SDS011;9417;16.484;102.872;2022-07-29T09:14:39;6.25;;;5.65;;
18574;SDS011;9417;16.484;102.872;2022-07-29T09:16:47;6.57;;;5.68;;
18574;SDS011;9417;16.484;102.872;2022-07-29T09:18:56;6.80;;;6.10;;
18574;SDS011;9417;16.484;102.872;2022-07-29T09:21:04;6.38;;;5.78;;
18574;SDS011;9417;16.484;102.872;2022-07-29T09:23:28;8.13;;;5.85;;
18574;SDS011;9417;16.484;102.872;2022-07-29T09:25:35;6.20;;;5.60;;
18574;SDS011;9417;16.484;102.872;2022-07-29T09:27:45;5.80;;;5.20;;
18574;SDS011;9417;16.484;102.872;2022-07-29T09:29:57;6.55;;;5.90;;
18574;SDS011;9417;16.484;102.872;2022-07-29T09:32:08;5.97;;;5.35;;
18574;SDS011;9417;16.484;102.872;2022-07-29T09:34:16;6.25;;;5.65;;
18574;SDS011;9417;16.484;102.872;2022-07-29T09:38:35;8.40;;;5.78;;
18574;SDS011;9417;16.484;102.872;2022-07-29T09:40:42;7.65;;;6.35;;
18574;SDS011;9417;16.484;102.872;2022-07-29T09:43:12;6.68;;;5.97;;
18574;SDS011;9417;16.484;102.872;2022-07-29T09:45:27;9.30;;;7.75;;
18574;SDS011;9417;16.484;102.872;2022-07-29T09:47:42;8.10;;;7.03;;
18574;SDS011;9417;16.484;102.872;2022-07-29T09:49:53;9.98;;;7.93;;
18574;SDS011;9417;16.484;102.872;2022-07-29T09:52:05;9.82;;;8.05;;
18574;SDS011;9417;16.484;102.872;2022-07-29T09:56:42;9.68;;;7.70;;
18574;SDS011;9417;16.484;102.872;2022-07-29T09:58:55;9.88;;;7.03;;
18574;SDS011;9417;16.484;102.872;2022-07-29T10:01:11;11.60;;;7.20;;
18574;SDS011;9417;16.484;102.872;2022-07-29T10:03:19;9.63;;;7.55;;
18574;SDS011;9417;16.484;102.872;2022-07-29T10:05:28;7.80;;;6.72;;
18574;SDS011;9417;16.484;102.872;2022-07-29T10:07:44;11.45;;;9.52;;
18574;SDS011;9417;16.484;102.872;2022-07-29T10:09:56;9.77;;;8.68;;
18574;SDS011;9417;16.484;102.872;2022-07-29T10:12:07;11.80;;;7.70;;
18574;SDS011;9417;16.484;102.872;2022-07-29T10:14:18;7.60;;;6.82;;
18574;SDS011;9417;16.484;102.872;2022-07-29T10:16:26;8.05;;;6.95;;
18574;SDS011;9417;16.484;102.872;2022-07-29T10:18:37;8.30;;;7.05;;
18574;SDS011;9417;16.484;102.872;2022-07-29T10:20:45;8.10;;;7.30;;
18574;SDS011;9417;16.484;102.872;2022-07-29T10:22:52;8.45;;;7.55;;
18574;SDS011;9417;16.484;102.872;2022-07-29T10:25:00;10.05;;;7.60;;
18574;SDS011;9417;16.484;102.872;2022-07-29T10:27:08;7.63;;;6.82;;
18574;SDS011;9417;16.484;102.872;2022-07-29T10:29:16;8.85;;;6.95;;
18574;SDS011;9417;16.484;102.872;2022-07-29T10:31:26;8.55;;;7.00;;
18574;SDS011;9417;16.484;102.872;2022-07-29T10:33:45;7.47;;;6.25;;
18574;SDS011;9417;16.484;102.872;2022-07-29T10:36:07;7.82;;;6.35;;
18574;SDS011;9417;16.484;102.872;2022-07-29T10:41:00;8.52;;;7.07;;
18574;SDS011;9417;16.484;102.872;2022-07-29T10:43:45;9.57;;;7.18;;
18574;SDS011;9417;16.484;102.872;2022-07-29T10:45:57;11.15;;;7.68;;
18574;SDS011;9417;16.484;102.872;2022-07-29T10:48:08;8.32;;;6.40;;
18574;SDS011;9417;16.484;102.872;2022-07-29T10:50:16;7.43;;;6.70;;
18574;SDS011;9417;16.484;102.872;2022-07-29T10:52:24;7.65;;;6.22;;
18574;SDS011;9417;16.484;102.872;2022-07-29T10:54:56;7.10;;;6.15;;
18574;SDS011;9417;16.484;102.872;2022-07-29T10:57:15;7.43;;;5.63;;
18574;SDS011;9417;16.484;102.872;2022-07-29T10:59:27;7.38;;;6.50;;
18574;SDS011;9417;16.484;102.872;2022-07-29T11:01:39;7.43;;;6.30;;
18574;SDS011;9417;16.484;102.872;2022-07-29T11:04:06;6.85;;;6.10;;
18574;SDS011;9417;16.484;102.872;2022-07-29T11:06:16;6.50;;;5.88;;
18574;SDS011;9417;16.484;102.872;2022-07-29T11:08:28;8.25;;;6.13;;
18574;SDS011;9417;16.484;102.872;2022-07-29T11:10:36;6.18;;;5.57;;
18574;SDS011;9417;16.484;102.872;2022-07-29T11:12:46;6.82;;;6.00;;
18574;SDS011;9417;16.484;102.872;2022-07-29T11:14:55;6.80;;;6.07;;
18574;SDS011;9417;16.484;102.872;2022-07-29T11:17:05;6.80;;;6.07;;
18574;SDS011;9417;16.484;102.872;2022-07-29T11:19:21;6.45;;;5.80;;
18574;SDS011;9417;16.484;102.872;2022-07-29T11:21:35;7.65;;;6.15;;
18574;SDS011;9417;16.484;102.872;2022-07-29T11:24:11;6.82;;;6.13;;
18574;SDS011;9417;16.484;102.872;2022-07-29T11:26:30;6.40;;;5.80;;
18574;SDS011;9417;16.484;102.872;2022-07-29T11:28:48;10.52;;;6.32;;
18574;SDS011;9417;16.484;102.872;2022-07-29T11:30:57;7.30;;;6.60;;
18574;SDS011;9417;16.484;102.872;2022-07-29T11:33:09;8.10;;;6.50;;
18574;SDS011;9417;16.484;102.872;2022-07-29T11:36:07;9.98;;;6.75;;
18574;SDS011;9417;16.484;102.872;2022-07-29T11:38:35;9.13;;;6.72;;
18574;SDS011;9417;16.484;102.872;2022-07-29T11:40:43;10.23;;;8.35;;
18574;SDS011;9417;16.484;102.872;2022-07-29T11:46:01;12.13;;;9.85;;
18574;SDS011;9417;16.484;102.872;2022-07-29T11:48:30;12.77;;;10.25;;
18574;SDS011;9417;16.484;102.872;2022-07-29T11:50:47;12.05;;;10.10;;
18574;SDS011;9417;16.484;102.872;2022-07-29T11:53:10;12.93;;;10.15;;
18574;SDS011;9417;16.484;102.872;2022-07-29T11:55:31;11.98;;;10.55;;
18574;SDS011;9417;16.484;102.872;2022-07-29T11:57:53;13.27;;;10.55;;
18574;SDS011;9417;16.484;102.872;2022-07-29T12:00:07;13.13;;;10.88;;
18574;SDS011;9417;16.484;102.872;2022-07-29T12:02:21;12.38;;;10.18;;
18574;SDS011;9417;16.484;102.872;2022-07-29T12:04:49;14.15;;;10.65;;
18574;SDS011;9417;16.484;102.872;2022-07-29T12:07:13;13.43;;;10.18;;
18574;SDS011;9417;16.484;102.872;2022-07-29T12:09:33;14.82;;;11.25;;
18574;SDS011;9417;16.484;102.872;2022-07-29T12:11:59;11.35;;;10.15;;
18574;SDS011;9417;16.484;102.872;2022-07-29T12:14:27;14.00;;;11.33;;
18574;SDS011;9417;16.484;102.872;2022-07-29T12:16:41;13.35;;;10.63;;
18574;SDS011;9417;16.484;102.872;2022-07-29T12:19:01;11.90;;;10.52;;
18574;SDS011;9417;16.484;102.872;2022-07-29T12:21:14;13.48;;;10.90;;
18574;SDS011;9417;16.484;102.872;2022-07-29T12:23:33;12.07;;;9.77;;
18574;SDS011;9417;16.484;102.872;2022-07-29T12:26:03;15.18;;;11.32;;
18574;SDS011;9417;16.484;102.872;2022-07-29T12:28:24;12.43;;;10.93;;
18574;SDS011;9417;16.484;102.872;2022-07-29T12:30:39;13.57;;;10.77;;
18574;SDS011;9417;16.484;102.872;2022-07-29T12:32:53;13.18;;;11.52;;
18574;SDS011;9417;16.484;102.872;2022-07-29T12:35:04;14.00;;;11.30;;
18574;SDS011;9417;16.484;102.872;2022-07-29T12:37:27;13.18;;;11.65;;
18574;SDS011;9417;16.484;102.872;2022-07-29T12:39:44;15.80;;;12.40;;
18574;SDS011;9417;16.484;102.872;2022-07-29T12:42:10;14.25;;;12.75;;
18574;SDS011;9417;16.484;102.872;2022-07-29T12:44:20;14.63;;;12.98;;
18574;SDS011;9417;16.484;102.872;2022-07-29T12:46:36;17.30;;;13.52;;
18574;SDS011;9417;16.484;102.872;2022-07-29T12:48:43;13.65;;;12.18;;
18574;SDS011;9417;16.484;102.872;2022-07-29T12:50:55;12.88;;;11.57;;
18574;SDS011;9417;16.484;102.872;2022-07-29T12:53:18;15.20;;;11.63;;
18574;SDS011;9417;16.484;102.872;2022-07-29T12:55:38;14.98;;;11.77;;
18574;SDS011;9417;16.484;102.872;2022-07-29T12:58:27;14.68;;;11.40;;
18574;SDS011;9417;16.484;102.872;2022-07-29T13:00:47;12.82;;;10.07;;
18574;SDS011;9417;16.484;102.872;2022-07-29T13:03:22;14.63;;;11.77;;
18574;SDS011;9417;16.484;102.872;2022-07-29T13:05:43;16.45;;;13.13;;